This is the latest recevied weather packets stored in our database for station/object KO4YAW. If no packets are shown the sender has not sent any weather packets the latest 10 day(s).
| Time | Temp. | Humidity | Pressure | Rain* | Wind** | Luminosity | Snow |
|---|---|---|---|---|---|---|---|
| 1777710632 | 5° C | 54% | 1021.7 hPa | 0 mm | - | 0 W/m² | - |
| 1777709732 | 5.56° C | 53% | 1021.8 hPa | 0 mm | - | 0 W/m² | - |
| 1777708832 | 5.56° C | 51% | 1021.8 hPa | 0 mm | - | 0 W/m² | - |
| 1777707932 | 6.11° C | 49% | 1021.9 hPa | 0 mm | - | 0 W/m² | - |
| 1777707032 | 6.67° C | 45% | 1021.9 hPa | 0 mm | - | 0 W/m² | - |
| 1777706132 | 7.22° C | 44% | 1021.9 hPa | 0 mm | - | 0 W/m² | - |
| 1777705232 | 7.78° C | 42% | 1022.1 hPa | 0 mm | - | 0 W/m² | - |
| 1777704332 | 8.33° C | 39% | 1022.1 hPa | 0 mm | - | 0 W/m² | - |
| 1777703432 | 8.33° C | 36% | 1021.9 hPa | 0 mm | - | 0 W/m² | - |
| 1777702532 | 8.33° C | 36% | 1021.8 hPa | 0 mm | - | 0 W/m² | - |
| 1777701632 | 8.89° C | 36% | 1021.9 hPa | 0 mm | - | 0 W/m² | - |
| 1777700732 | 8.89° C | 35% | 1021.8 hPa | 0 mm | - | 0 W/m² | - |
| 1777699832 | 8.89° C | 35% | 1021.7 hPa | 0 mm | - | 0 W/m² | - |
| 1777698932 | 9.44° C | 32% | 1021.6 hPa | 0 mm | - | 0 W/m² | - |
| 1777698032 | 8.89° C | 32% | 1021.6 hPa | 0 mm | - | 0 W/m² | - |
| 1777697132 | 8.33° C | 33% | 1021.6 hPa | 0 mm | - | 0 W/m² | - |
| 1777696232 | 8.33° C | 33% | 1021.6 hPa | 0 mm | - | 0 W/m² | - |
| 1777695332 | 7.78° C | 34% | 1021.5 hPa | 0 mm | - | 0 W/m² | - |
| 1777694432 | 8.33° C | 34% | 1021.4 hPa | 0 mm | - | 0 W/m² | - |
| 1777693532 | 8.33° C | 33% | 1021.2 hPa | 0 mm | - | 0 W/m² | - |
| 1777692632 | 9.44° C | 31% | 1021 hPa | 0 mm | - | 0 W/m² | - |
| 1777691732 | 10° C | 29% | 1020.8 hPa | 0 mm | - | 0 W/m² | - |
| 1777690832 | 10.56° C | 29% | 1020.6 hPa | 0 mm | - | 0 W/m² | - |
| 1777689932 | 11.11° C | 29% | 1020.3 hPa | 0 mm | - | 0 W/m² | - |
| 1777689032 | 11.67° C | 27% | 1020.2 hPa | 0 mm | - | 0 W/m² | - |
* Rain since midnight (hover to see other rain measurements)
** Current wind speed in m/s (hover to see current wind gust speed)